sensor_id;sensor_type;location;lat;lon;timestamp;P1;durP1;ratioP1;P2;durP2;ratioP2
61642;SDS011;47551;52.506;4.678;2024-01-06T00:00:17;9.50;;;5.10;;
61642;SDS011;47551;52.506;4.678;2024-01-06T00:00:37;11.33;;;5.37;;
61642;SDS011;47551;52.506;4.678;2024-01-06T00:00:57;10.50;;;5.27;;
61642;SDS011;47551;52.506;4.678;2024-01-06T00:01:20;9.23;;;5.28;;
61642;SDS011;47551;52.506;4.678;2024-01-06T00:01:41;9.83;;;5.23;;
61642;SDS011;47551;52.506;4.678;2024-01-06T00:02:01;9.83;;;5.47;;
61642;SDS011;47551;52.506;4.678;2024-01-06T00:02:21;9.40;;;5.78;;
61642;SDS011;47551;52.506;4.678;2024-01-06T00:02:42;10.03;;;5.67;;
61642;SDS011;47551;52.506;4.678;2024-01-06T00:03:02;9.50;;;5.40;;
61642;SDS011;47551;52.506;4.678;2024-01-06T00:03:22;8.45;;;5.50;;
61642;SDS011;47551;52.506;4.678;2024-01-06T00:03:42;8.73;;;5.47;;
61642;SDS011;47551;52.506;4.678;2024-01-06T00:04:03;7.40;;;4.83;;
61642;SDS011;47551;52.506;4.678;2024-01-06T00:04:23;7.45;;;5.03;;
61642;SDS011;47551;52.506;4.678;2024-01-06T00:04:43;7.93;;;5.10;;
61642;SDS011;47551;52.506;4.678;2024-01-06T00:05:03;9.20;;;4.97;;
61642;SDS011;47551;52.506;4.678;2024-01-06T00:05:24;9.35;;;4.88;;
61642;SDS011;47551;52.506;4.678;2024-01-06T00:05:44;8.83;;;5.13;;
61642;SDS011;47551;52.506;4.678;2024-01-06T00:06:04;8.53;;;4.93;;
61642;SDS011;47551;52.506;4.678;2024-01-06T00:06:24;8.53;;;5.03;;
61642;SDS011;47551;52.506;4.678;2024-01-06T00:06:45;9.30;;;5.05;;
61642;SDS011;47551;52.506;4.678;2024-01-06T00:07:05;8.50;;;4.90;;
61642;SDS011;47551;52.506;4.678;2024-01-06T00:07:25;8.13;;;4.63;;
61642;SDS011;47551;52.506;4.678;2024-01-06T00:07:45;8.13;;;4.50;;
61642;SDS011;47551;52.506;4.678;2024-01-06T00:08:05;8.40;;;4.97;;
61642;SDS011;47551;52.506;4.678;2024-01-06T00:08:26;8.70;;;5.10;;
61642;SDS011;47551;52.506;4.678;2024-01-06T00:08:47;8.60;;;5.00;;
61642;SDS011;47551;52.506;4.678;2024-01-06T00:09:11;9.77;;;4.90;;
61642;SDS011;47551;52.506;4.678;2024-01-06T00:09:31;8.17;;;4.90;;
61642;SDS011;47551;52.506;4.678;2024-01-06T00:09:51;8.60;;;4.83;;
61642;SDS011;47551;52.506;4.678;2024-01-06T00:10:12;7.85;;;5.10;;
61642;SDS011;47551;52.506;4.678;2024-01-06T00:10:32;8.13;;;5.10;;
61642;SDS011;47551;52.506;4.678;2024-01-06T00:10:56;7.90;;;4.90;;
61642;SDS011;47551;52.506;4.678;2024-01-06T00:11:16;7.80;;;5.03;;
61642;SDS011;47551;52.506;4.678;2024-01-06T00:11:36;8.83;;;4.83;;
61642;SDS011;47551;52.506;4.678;2024-01-06T00:11:56;8.87;;;5.07;;
61642;SDS011;47551;52.506;4.678;2024-01-06T00:12:17;8.23;;;4.80;;
61642;SDS011;47551;52.506;4.678;2024-01-06T00:12:38;9.68;;;4.80;;
61642;SDS011;47551;52.506;4.678;2024-01-06T00:12:58;8.90;;;4.70;;
61642;SDS011;47551;52.506;4.678;2024-01-06T00:13:18;10.00;;;4.60;;
61642;SDS011;47551;52.506;4.678;2024-01-06T00:13:39;8.50;;;4.70;;
61642;SDS011;47551;52.506;4.678;2024-01-06T00:13:59;9.07;;;4.80;;
61642;SDS011;47551;52.506;4.678;2024-01-06T00:14:19;8.60;;;4.90;;
61642;SDS011;47551;52.506;4.678;2024-01-06T00:14:39;7.93;;;4.83;;
61642;SDS011;47551;52.506;4.678;2024-01-06T00:15:03;7.82;;;4.40;;
61642;SDS011;47551;52.506;4.678;2024-01-06T00:15:24;7.23;;;4.53;;
61642;SDS011;47551;52.506;4.678;2024-01-06T00:15:44;9.17;;;4.60;;
61642;SDS011;47551;52.506;4.678;2024-01-06T00:16:04;7.50;;;4.80;;
61642;SDS011;47551;52.506;4.678;2024-01-06T00:16:24;8.60;;;4.90;;
61642;SDS011;47551;52.506;4.678;2024-01-06T00:16:45;9.23;;;5.07;;
61642;SDS011;47551;52.506;4.678;2024-01-06T00:17:05;8.50;;;4.70;;
61642;SDS011;47551;52.506;4.678;2024-01-06T00:17:25;9.70;;;5.00;;
61642;SDS011;47551;52.506;4.678;2024-01-06T00:17:45;8.20;;;4.73;;
61642;SDS011;47551;52.506;4.678;2024-01-06T00:18:05;7.57;;;4.80;;
61642;SDS011;47551;52.506;4.678;2024-01-06T00:18:26;8.73;;;4.60;;
61642;SDS011;47551;52.506;4.678;2024-01-06T00:18:46;8.80;;;4.97;;
61642;SDS011;47551;52.506;4.678;2024-01-06T00:19:06;7.03;;;4.65;;
61642;SDS011;47551;52.506;4.678;2024-01-06T00:19:27;7.17;;;4.70;;
61642;SDS011;47551;52.506;4.678;2024-01-06T00:19:47;9.47;;;4.77;;
61642;SDS011;47551;52.506;4.678;2024-01-06T00:20:10;10.07;;;4.50;;
61642;SDS011;47551;52.506;4.678;2024-01-06T00:20:31;8.63;;;4.67;;
61642;SDS011;47551;52.506;4.678;2024-01-06T00:20:51;8.07;;;4.60;;
61642;SDS011;47551;52.506;4.678;2024-01-06T00:21:11;9.75;;;4.82;;
61642;SDS011;47551;52.506;4.678;2024-01-06T00:21:31;10.60;;;5.03;;
61642;SDS011;47551;52.506;4.678;2024-01-06T00:21:52;9.03;;;5.37;;
61642;SDS011;47551;52.506;4.678;2024-01-06T00:22:12;8.52;;;5.13;;
61642;SDS011;47551;52.506;4.678;2024-01-06T00:22:32;8.07;;;4.97;;
61642;SDS011;47551;52.506;4.678;2024-01-06T00:22:52;7.77;;;4.73;;
61642;SDS011;47551;52.506;4.678;2024-01-06T00:23:12;8.17;;;4.83;;
61642;SDS011;47551;52.506;4.678;2024-01-06T00:23:32;9.13;;;4.73;;
61642;SDS011;47551;52.506;4.678;2024-01-06T00:23:53;9.55;;;4.75;;
61642;SDS011;47551;52.506;4.678;2024-01-06T00:24:15;8.60;;;4.60;;
61642;SDS011;47551;52.506;4.678;2024-01-06T00:24:35;8.07;;;4.90;;
61642;SDS011;47551;52.506;4.678;2024-01-06T00:24:56;8.13;;;4.97;;
61642;SDS011;47551;52.506;4.678;2024-01-06T00:25:16;7.77;;;4.53;;
61642;SDS011;47551;52.506;4.678;2024-01-06T00:25:39;8.88;;;4.72;;
61642;SDS011;47551;52.506;4.678;2024-01-06T00:25:59;10.27;;;4.77;;
61642;SDS011;47551;52.506;4.678;2024-01-06T00:26:19;8.37;;;4.60;;
61642;SDS011;47551;52.506;4.678;2024-01-06T00:26:39;8.20;;;4.60;;
61642;SDS011;47551;52.506;4.678;2024-01-06T00:27:00;8.90;;;4.97;;
61642;SDS011;47551;52.506;4.678;2024-01-06T00:27:20;8.60;;;4.73;;
61642;SDS011;47551;52.506;4.678;2024-01-06T00:27:40;8.00;;;4.77;;
61642;SDS011;47551;52.506;4.678;2024-01-06T00:28:00;7.40;;;4.60;;
61642;SDS011;47551;52.506;4.678;2024-01-06T00:28:20;8.47;;;4.50;;
61642;SDS011;47551;52.506;4.678;2024-01-06T00:28:41;8.00;;;4.07;;
61642;SDS011;47551;52.506;4.678;2024-01-06T00:29:01;8.18;;;3.80;;
61642;SDS011;47551;52.506;4.678;2024-01-06T00:29:21;8.83;;;3.97;;
61642;SDS011;47551;52.506;4.678;2024-01-06T00:29:41;7.33;;;3.43;;
61642;SDS011;47551;52.506;4.678;2024-01-06T00:30:01;7.63;;;3.58;;
61642;SDS011;47551;52.506;4.678;2024-01-06T00:30:22;7.00;;;3.70;;
61642;SDS011;47551;52.506;4.678;2024-01-06T00:30:42;6.40;;;3.70;;
61642;SDS011;47551;52.506;4.678;2024-01-06T00:31:02;5.77;;;3.83;;
61642;SDS011;47551;52.506;4.678;2024-01-06T00:31:22;6.97;;;3.50;;
61642;SDS011;47551;52.506;4.678;2024-01-06T00:31:42;8.53;;;3.63;;
61642;SDS011;47551;52.506;4.678;2024-01-06T00:32:03;7.50;;;3.70;;
61642;SDS011;47551;52.506;4.678;2024-01-06T00:32:23;6.17;;;3.40;;
61642;SDS011;47551;52.506;4.678;2024-01-06T00:32:43;6.78;;;3.50;;
61642;SDS011;47551;52.506;4.678;2024-01-06T00:33:04;6.50;;;3.63;;
61642;SDS011;47551;52.506;4.678;2024-01-06T00:33:24;6.57;;;3.80;;
61642;SDS011;47551;52.506;4.678;2024-01-06T00:33:44;7.20;;;4.20;;
61642;SDS011;47551;52.506;4.678;2024-01-06T00:34:04;7.33;;;3.87;;
61642;SDS011;47551;52.506;4.678;2024-01-06T00:34:24;6.40;;;3.27;;
61642;SDS011;47551;52.506;4.678;2024-01-06T00:34:44;6.33;;;3.33;;
61642;SDS011;47551;52.506;4.678;2024-01-06T00:35:05;6.85;;;3.70;;
61642;SDS011;47551;52.506;4.678;2024-01-06T00:35:25;6.20;;;3.60;;
61642;SDS011;47551;52.506;4.678;2024-01-06T00:35:45;5.80;;;3.47;;
61642;SDS011;47551;52.506;4.678;2024-01-06T00:36:06;6.50;;;3.60;;
61642;SDS011;47551;52.506;4.678;2024-01-06T00:36:27;7.03;;;3.40;;
61642;SDS011;47551;52.506;4.678;2024-01-06T00:36:47;6.83;;;3.57;;
61642;SDS011;47551;52.506;4.678;2024-01-06T00:37:07;6.50;;;3.60;;
61642;SDS011;47551;52.506;4.678;2024-01-06T00:37:28;5.83;;;3.30;;
61642;SDS011;47551;52.506;4.678;2024-01-06T00:37:48;6.37;;;3.50;;
61642;SDS011;47551;52.506;4.678;2024-01-06T00:38:08;6.03;;;3.60;;
61642;SDS011;47551;52.506;4.678;2024-01-06T00:38:31;6.72;;;3.83;;
61642;SDS011;47551;52.506;4.678;2024-01-06T00:38:51;6.43;;;3.78;;
61642;SDS011;47551;52.506;4.678;2024-01-06T00:39:11;7.63;;;3.80;;
61642;SDS011;47551;52.506;4.678;2024-01-06T00:39:31;6.40;;;3.70;;
61642;SDS011;47551;52.506;4.678;2024-01-06T00:39:54;6.20;;;3.85;;
61642;SDS011;47551;52.506;4.678;2024-01-06T00:40:14;7.07;;;4.00;;
61642;SDS011;47551;52.506;4.678;2024-01-06T00:40:34;7.87;;;4.03;;
61642;SDS011;47551;52.506;4.678;2024-01-06T00:40:55;7.45;;;4.05;;
61642;SDS011;47551;52.506;4.678;2024-01-06T00:41:15;6.27;;;3.83;;
61642;SDS011;47551;52.506;4.678;2024-01-06T00:41:35;7.20;;;4.27;;
61642;SDS011;47551;52.506;4.678;2024-01-06T00:41:55;6.13;;;4.00;;
61642;SDS011;47551;52.506;4.678;2024-01-06T00:42:16;6.15;;;4.00;;
61642;SDS011;47551;52.506;4.678;2024-01-06T00:42:36;6.77;;;4.17;;
61642;SDS011;47551;52.506;4.678;2024-01-06T00:42:56;7.20;;;4.40;;
61642;SDS011;47551;52.506;4.678;2024-01-06T00:43:16;7.63;;;4.07;;
61642;SDS011;47551;52.506;4.678;2024-01-06T00:43:36;7.18;;;4.10;;
61642;SDS011;47551;52.506;4.678;2024-01-06T00:43:56;7.77;;;4.40;;
61642;SDS011;47551;52.506;4.678;2024-01-06T00:44:16;9.57;;;4.47;;
61642;SDS011;47551;52.506;4.678;2024-01-06T00:44:37;9.13;;;4.17;;
61642;SDS011;47551;52.506;4.678;2024-01-06T00:44:57;7.65;;;4.05;;
61642;SDS011;47551;52.506;4.678;2024-01-06T00:45:17;7.10;;;4.10;;
61642;SDS011;47551;52.506;4.678;2024-01-06T00:45:38;7.80;;;4.50;;
61642;SDS011;47551;52.506;4.678;2024-01-06T00:45:58;7.35;;;4.00;;
61642;SDS011;47551;52.506;4.678;2024-01-06T00:46:18;6.90;;;4.00;;
61642;SDS011;47551;52.506;4.678;2024-01-06T00:46:41;6.53;;;4.10;;
61642;SDS011;47551;52.506;4.678;2024-01-06T00:47:01;7.57;;;4.53;;
61642;SDS011;47551;52.506;4.678;2024-01-06T00:47:21;7.63;;;4.07;;
61642;SDS011;47551;52.506;4.678;2024-01-06T00:47:44;7.13;;;4.03;;
61642;SDS011;47551;52.506;4.678;2024-01-06T00:48:04;7.27;;;4.00;;
61642;SDS011;47551;52.506;4.678;2024-01-06T00:48:24;7.47;;;4.40;;
61642;SDS011;47551;52.506;4.678;2024-01-06T00:48:45;7.53;;;4.17;;
61642;SDS011;47551;52.506;4.678;2024-01-06T00:49:08;7.33;;;4.33;;
61642;SDS011;47551;52.506;4.678;2024-01-06T00:49:28;6.95;;;4.10;;
61642;SDS011;47551;52.506;4.678;2024-01-06T00:49:48;7.57;;;4.17;;
61642;SDS011;47551;52.506;4.678;2024-01-06T00:50:08;7.55;;;3.92;;
61642;SDS011;47551;52.506;4.678;2024-01-06T00:50:28;6.70;;;4.07;;
61642;SDS011;47551;52.506;4.678;2024-01-06T00:50:49;7.10;;;4.03;;
61642;SDS011;47551;52.506;4.678;2024-01-06T00:51:09;7.83;;;3.90;;
61642;SDS011;47551;52.506;4.678;2024-01-06T00:51:29;6.83;;;3.60;;
61642;SDS011;47551;52.506;4.678;2024-01-06T00:51:49;7.10;;;3.33;;
61642;SDS011;47551;52.506;4.678;2024-01-06T00:52:10;6.32;;;3.40;;
61642;SDS011;47551;52.506;4.678;2024-01-06T00:52:30;6.20;;;3.43;;
61642;SDS011;47551;52.506;4.678;2024-01-06T00:52:50;6.77;;;3.47;;
61642;SDS011;47551;52.506;4.678;2024-01-06T00:53:13;7.00;;;3.50;;
61642;SDS011;47551;52.506;4.678;2024-01-06T00:53:34;5.90;;;3.60;;
61642;SDS011;47551;52.506;4.678;2024-01-06T00:53:54;5.67;;;3.10;;
61642;SDS011;47551;52.506;4.678;2024-01-06T00:54:14;6.80;;;3.20;;
61642;SDS011;47551;52.506;4.678;2024-01-06T00:54:35;5.93;;;3.20;;
61642;SDS011;47551;52.506;4.678;2024-01-06T00:54:55;5.97;;;3.30;;
61642;SDS011;47551;52.506;4.678;2024-01-06T00:55:15;5.80;;;3.20;;
61642;SDS011;47551;52.506;4.678;2024-01-06T00:55:35;6.67;;;3.20;;
61642;SDS011;47551;52.506;4.678;2024-01-06T00:55:55;6.57;;;3.33;;
61642;SDS011;47551;52.506;4.678;2024-01-06T00:56:15;7.13;;;3.47;;
61642;SDS011;47551;52.506;4.678;2024-01-06T00:56:36;6.77;;;3.20;;
61642;SDS011;47551;52.506;4.678;2024-01-06T00:56:56;6.27;;;3.37;;
61642;SDS011;47551;52.506;4.678;2024-01-06T00:57:16;5.78;;;3.17;;
61642;SDS011;47551;52.506;4.678;2024-01-06T00:57:36;6.10;;;3.13;;
61642;SDS011;47551;52.506;4.678;2024-01-06T00:57:57;6.30;;;3.35;;
61642;SDS011;47551;52.506;4.678;2024-01-06T00:58:17;6.20;;;3.30;;
61642;SDS011;47551;52.506;4.678;2024-01-06T00:58:37;6.73;;;3.47;;
61642;SDS011;47551;52.506;4.678;2024-01-06T00:58:57;6.87;;;3.37;;
61642;SDS011;47551;52.506;4.678;2024-01-06T00:59:18;7.50;;;3.50;;
61642;SDS011;47551;52.506;4.678;2024-01-06T00:59:38;6.60;;;3.80;;
61642;SDS011;47551;52.506;4.678;2024-01-06T00:59:58;6.03;;;3.60;;
61642;SDS011;47551;52.506;4.678;2024-01-06T01:00:18;6.03;;;3.50;;
61642;SDS011;47551;52.506;4.678;2024-01-06T01:00:38;6.40;;;3.63;;
61642;SDS011;47551;52.506;4.678;2024-01-06T01:00:59;7.07;;;3.67;;
61642;SDS011;47551;52.506;4.678;2024-01-06T01:01:19;6.13;;;3.53;;
61642;SDS011;47551;52.506;4.678;2024-01-06T01:01:39;6.17;;;3.67;;
61642;SDS011;47551;52.506;4.678;2024-01-06T01:01:59;6.82;;;3.90;;
61642;SDS011;47551;52.506;4.678;2024-01-06T01:02:19;6.70;;;3.73;;
61642;SDS011;47551;52.506;4.678;2024-01-06T01:02:39;6.00;;;3.50;;
61642;SDS011;47551;52.506;4.678;2024-01-06T01:03:00;6.80;;;3.43;;
61642;SDS011;47551;52.506;4.678;2024-01-06T01:03:20;6.40;;;3.40;;
61642;SDS011;47551;52.506;4.678;2024-01-06T01:03:40;6.53;;;3.43;;
61642;SDS011;47551;52.506;4.678;2024-01-06T01:04:00;7.23;;;3.37;;
61642;SDS011;47551;52.506;4.678;2024-01-06T01:04:23;6.28;;;3.40;;
61642;SDS011;47551;52.506;4.678;2024-01-06T01:04:44;6.07;;;3.23;;
61642;SDS011;47551;52.506;4.678;2024-01-06T01:05:04;5.90;;;3.40;;
61642;SDS011;47551;52.506;4.678;2024-01-06T01:05:24;7.50;;;3.50;;
61642;SDS011;47551;52.506;4.678;2024-01-06T01:05:44;8.03;;;3.60;;
61642;SDS011;47551;52.506;4.678;2024-01-06T01:06:04;5.72;;;3.15;;
61642;SDS011;47551;52.506;4.678;2024-01-06T01:06:25;8.13;;;3.20;;
61642;SDS011;47551;52.506;4.678;2024-01-06T01:06:45;7.00;;;3.33;;
61642;SDS011;47551;52.506;4.678;2024-01-06T01:07:05;6.87;;;3.30;;
61642;SDS011;47551;52.506;4.678;2024-01-06T01:07:25;6.73;;;3.20;;
61642;SDS011;47551;52.506;4.678;2024-01-06T01:07:47;7.00;;;3.55;;
61642;SDS011;47551;52.506;4.678;2024-01-06T01:08:07;6.90;;;3.43;;
61642;SDS011;47551;52.506;4.678;2024-01-06T01:08:27;6.93;;;3.60;;
61642;SDS011;47551;52.506;4.678;2024-01-06T01:08:47;6.55;;;3.60;;
61642;SDS011;47551;52.506;4.678;2024-01-06T01:09:07;6.50;;;3.50;;
61642;SDS011;47551;52.506;4.678;2024-01-06T01:09:30;6.72;;;3.65;;
61642;SDS011;47551;52.506;4.678;2024-01-06T01:09:50;6.87;;;3.80;;
61642;SDS011;47551;52.506;4.678;2024-01-06T01:10:10;7.37;;;3.87;;
61642;SDS011;47551;52.506;4.678;2024-01-06T01:10:30;6.47;;;3.70;;
61642;SDS011;47551;52.506;4.678;2024-01-06T01:10:51;7.18;;;3.80;;
61642;SDS011;47551;52.506;4.678;2024-01-06T01:11:11;7.53;;;3.97;;
61642;SDS011;47551;52.506;4.678;2024-01-06T01:11:31;7.77;;;3.97;;
61642;SDS011;47551;52.506;4.678;2024-01-06T01:11:51;7.63;;;4.00;;
61642;SDS011;47551;52.506;4.678;2024-01-06T01:12:12;7.45;;;4.15;;
61642;SDS011;47551;52.506;4.678;2024-01-06T01:12:32;6.33;;;4.00;;
61642;SDS011;47551;52.506;4.678;2024-01-06T01:12:52;7.77;;;4.03;;
61642;SDS011;47551;52.506;4.678;2024-01-06T01:13:12;8.50;;;4.20;;
61642;SDS011;47551;52.506;4.678;2024-01-06T01:13:32;7.68;;;4.20;;
61642;SDS011;47551;52.506;4.678;2024-01-06T01:13:52;7.17;;;4.27;;
61642;SDS011;47551;52.506;4.678;2024-01-06T01:14:13;6.67;;;3.90;;
61642;SDS011;47551;52.506;4.678;2024-01-06T01:14:33;6.97;;;4.00;;
61642;SDS011;47551;52.506;4.678;2024-01-06T01:14:56;6.55;;;3.90;;
61642;SDS011;47551;52.506;4.678;2024-01-06T01:15:16;7.57;;;4.03;;
61642;SDS011;47551;52.506;4.678;2024-01-06T01:15:36;7.43;;;3.90;;
61642;SDS011;47551;52.506;4.678;2024-01-06T01:15:56;7.87;;;4.00;;
61642;SDS011;47551;52.506;4.678;2024-01-06T01:16:17;6.43;;;4.23;;
61642;SDS011;47551;52.506;4.678;2024-01-06T01:16:37;6.90;;;4.13;;
61642;SDS011;47551;52.506;4.678;2024-01-06T01:16:57;7.83;;;4.10;;
61642;SDS011;47551;52.506;4.678;2024-01-06T01:17:17;7.37;;;4.10;;
61642;SDS011;47551;52.506;4.678;2024-01-06T01:17:37;7.83;;;4.20;;
61642;SDS011;47551;52.506;4.678;2024-01-06T01:17:58;6.80;;;4.03;;
61642;SDS011;47551;52.506;4.678;2024-01-06T01:18:20;7.88;;;4.18;;
61642;SDS011;47551;52.506;4.678;2024-01-06T01:18:41;7.77;;;4.47;;
61642;SDS011;47551;52.506;4.678;2024-01-06T01:19:01;8.33;;;5.13;;
61642;SDS011;47551;52.506;4.678;2024-01-06T01:19:24;8.48;;;5.05;;
61642;SDS011;47551;52.506;4.678;2024-01-06T01:19:44;8.13;;;4.80;;
61642;SDS011;47551;52.506;4.678;2024-01-06T01:20:05;9.23;;;5.10;;
61642;SDS011;47551;52.506;4.678;2024-01-06T01:20:25;9.82;;;5.30;;
61642;SDS011;47551;52.506;4.678;2024-01-06T01:20:45;9.33;;;5.03;;
61642;SDS011;47551;52.506;4.678;2024-01-06T01:21:06;9.37;;;5.20;;
61642;SDS011;47551;52.506;4.678;2024-01-06T01:21:26;10.47;;;5.20;;
61642;SDS011;47551;52.506;4.678;2024-01-06T01:21:46;9.43;;;5.20;;
61642;SDS011;47551;52.506;4.678;2024-01-06T01:22:06;8.57;;;5.30;;
61642;SDS011;47551;52.506;4.678;2024-01-06T01:22:26;9.13;;;5.13;;
61642;SDS011;47551;52.506;4.678;2024-01-06T01:22:47;9.57;;;5.10;;
61642;SDS011;47551;52.506;4.678;2024-01-06T01:23:07;8.93;;;5.30;;
61642;SDS011;47551;52.506;4.678;2024-01-06T01:23:27;8.30;;;5.23;;
61642;SDS011;47551;52.506;4.678;2024-01-06T01:23:47;9.07;;;5.27;;
61642;SDS011;47551;52.506;4.678;2024-01-06T01:24:07;8.25;;;5.10;;
61642;SDS011;47551;52.506;4.678;2024-01-06T01:24:28;8.60;;;4.83;;
61642;SDS011;47551;52.506;4.678;2024-01-06T01:24:48;9.60;;;4.87;;
61642;SDS011;47551;52.506;4.678;2024-01-06T01:25:08;7.40;;;4.80;;
61642;SDS011;47551;52.506;4.678;2024-01-06T01:25:29;7.18;;;4.38;;
61642;SDS011;47551;52.506;4.678;2024-01-06T01:25:49;7.83;;;4.60;;
61642;SDS011;47551;52.506;4.678;2024-01-06T01:26:09;8.00;;;4.43;;
61642;SDS011;47551;52.506;4.678;2024-01-06T01:26:29;8.45;;;4.75;;
61642;SDS011;47551;52.506;4.678;2024-01-06T01:26:49;8.27;;;4.80;;
61642;SDS011;47551;52.506;4.678;2024-01-06T01:27:10;8.20;;;5.10;;
61642;SDS011;47551;52.506;4.678;2024-01-06T01:27:30;7.53;;;4.80;;
61642;SDS011;47551;52.506;4.678;2024-01-06T01:27:50;7.10;;;4.47;;
61642;SDS011;47551;52.506;4.678;2024-01-06T01:28:12;7.40;;;4.97;;
61642;SDS011;47551;52.506;4.678;2024-01-06T01:28:33;8.17;;;4.97;;
61642;SDS011;47551;52.506;4.678;2024-01-06T01:28:53;8.85;;;4.82;;
61642;SDS011;47551;52.506;4.678;2024-01-06T01:29:13;8.23;;;4.83;;
61642;SDS011;47551;52.506;4.678;2024-01-06T01:29:33;8.40;;;4.83;;
61642;SDS011;47551;52.506;4.678;2024-01-06T01:29:53;9.57;;;5.10;;
61642;SDS011;47551;52.506;4.678;2024-01-06T01:30:14;8.48;;;5.00;;
61642;SDS011;47551;52.506;4.678;2024-01-06T01:30:35;7.97;;;4.90;;
61642;SDS011;47551;52.506;4.678;2024-01-06T01:30:55;8.80;;;4.83;;
61642;SDS011;47551;52.506;4.678;2024-01-06T01:31:15;9.30;;;5.23;;
61642;SDS011;47551;52.506;4.678;2024-01-06T01:31:35;8.75;;;5.57;;
61642;SDS011;47551;52.506;4.678;2024-01-06T01:31:55;7.37;;;4.83;;
61642;SDS011;47551;52.506;4.678;2024-01-06T01:32:15;9.27;;;5.00;;
61642;SDS011;47551;52.506;4.678;2024-01-06T01:32:36;10.33;;;5.50;;
61642;SDS011;47551;52.506;4.678;2024-01-06T01:32:57;8.70;;;5.10;;
61642;SDS011;47551;52.506;4.678;2024-01-06T01:33:17;8.57;;;5.20;;
61642;SDS011;47551;52.506;4.678;2024-01-06T01:33:37;8.93;;;5.53;;
61642;SDS011;47551;52.506;4.678;2024-01-06T01:33:57;8.13;;;5.43;;
61642;SDS011;47551;52.506;4.678;2024-01-06T01:34:17;8.83;;;5.77;;
61642;SDS011;47551;52.506;4.678;2024-01-06T01:34:37;10.40;;;5.90;;
61642;SDS011;47551;52.506;4.678;2024-01-06T01:34:57;9.43;;;5.77;;
61642;SDS011;47551;52.506;4.678;2024-01-06T01:35:18;9.02;;;5.78;;
61642;SDS011;47551;52.506;4.678;2024-01-06T01:35:38;9.03;;;5.63;;
61642;SDS011;47551;52.506;4.678;2024-01-06T01:35:58;9.60;;;5.70;;
61642;SDS011;47551;52.506;4.678;2024-01-06T01:36:18;8.90;;;5.57;;
61642;SDS011;47551;52.506;4.678;2024-01-06T01:36:39;9.97;;;5.73;;
61642;SDS011;47551;52.506;4.678;2024-01-06T01:37:02;10.02;;;5.82;;
61642;SDS011;47551;52.506;4.678;2024-01-06T01:37:23;9.80;;;5.90;;
61642;SDS011;47551;52.506;4.678;2024-01-06T01:37:43;9.30;;;5.93;;
61642;SDS011;47551;52.506;4.678;2024-01-06T01:38:03;9.63;;;5.85;;
61642;SDS011;47551;52.506;4.678;2024-01-06T01:38:23;10.47;;;6.10;;
61642;SDS011;47551;52.506;4.678;2024-01-06T01:38:44;8.57;;;5.80;;
61642;SDS011;47551;52.506;4.678;2024-01-06T01:39:06;10.02;;;6.15;;
61642;SDS011;47551;52.506;4.678;2024-01-06T01:39:27;9.67;;;6.27;;
61642;SDS011;47551;52.506;4.678;2024-01-06T01:39:47;10.03;;;6.03;;
61642;SDS011;47551;52.506;4.678;2024-01-06T01:40:10;10.55;;;6.20;;
61642;SDS011;47551;52.506;4.678;2024-01-06T01:40:30;10.38;;;6.15;;
61642;SDS011;47551;52.506;4.678;2024-01-06T01:40:50;10.40;;;6.23;;
61642;SDS011;47551;52.506;4.678;2024-01-06T01:41:10;9.80;;;6.40;;
61642;SDS011;47551;52.506;4.678;2024-01-06T01:41:31;10.13;;;6.47;;
61642;SDS011;47551;52.506;4.678;2024-01-06T01:41:51;10.20;;;6.30;;
61642;SDS011;47551;52.506;4.678;2024-01-06T01:42:11;10.47;;;6.33;;
61642;SDS011;47551;52.506;4.678;2024-01-06T01:42:32;10.87;;;6.33;;
61642;SDS011;47551;52.506;4.678;2024-01-06T01:42:52;10.38;;;6.30;;
61642;SDS011;47551;52.506;4.678;2024-01-06T01:43:18;10.50;;;6.03;;
61642;SDS011;47551;52.506;4.678;2024-01-06T01:43:39;12.63;;;6.15;;
61642;SDS011;47551;52.506;4.678;2024-01-06T01:44:02;11.82;;;6.28;;
61642;SDS011;47551;52.506;4.678;2024-01-06T01:44:31;9.00;;;6.10;;
61642;SDS011;47551;52.506;4.678;2024-01-06T01:44:51;10.02;;;6.45;;
61642;SDS011;47551;52.506;4.678;2024-01-06T01:45:11;11.17;;;6.27;;
61642;SDS011;47551;52.506;4.678;2024-01-06T01:45:32;10.40;;;5.97;;
61642;SDS011;47551;52.506;4.678;2024-01-06T01:45:53;9.50;;;6.00;;
61642;SDS011;47551;52.506;4.678;2024-01-06T01:46:13;9.68;;;6.20;;
61642;SDS011;47551;52.506;4.678;2024-01-06T01:46:33;11.57;;;6.37;;
61642;SDS011;47551;52.506;4.678;2024-01-06T01:46:57;11.18;;;6.25;;
61642;SDS011;47551;52.506;4.678;2024-01-06T01:47:17;10.95;;;6.60;;
61642;SDS011;47551;52.506;4.678;2024-01-06T01:47:38;11.30;;;6.43;;
61642;SDS011;47551;52.506;4.678;2024-01-06T01:47:59;10.00;;;6.38;;
61642;SDS011;47551;52.506;4.678;2024-01-06T01:48:19;10.50;;;6.40;;
61642;SDS011;47551;52.506;4.678;2024-01-06T01:48:40;11.68;;;6.38;;
61642;SDS011;47551;52.506;4.678;2024-01-06T01:49:01;10.83;;;5.70;;
61642;SDS011;47551;52.506;4.678;2024-01-06T01:49:21;9.55;;;5.70;;
61642;SDS011;47551;52.506;4.678;2024-01-06T01:49:42;9.88;;;5.65;;
61642;SDS011;47551;52.506;4.678;2024-01-06T01:50:02;9.73;;;5.67;;
61642;SDS011;47551;52.506;4.678;2024-01-06T01:50:25;9.20;;;5.85;;
61642;SDS011;47551;52.506;4.678;2024-01-06T01:50:47;9.50;;;5.68;;
61642;SDS011;47551;52.506;4.678;2024-01-06T01:51:08;8.40;;;5.40;;
61642;SDS011;47551;52.506;4.678;2024-01-06T01:51:34;9.70;;;5.40;;
61642;SDS011;47551;52.506;4.678;2024-01-06T01:51:55;8.43;;;5.55;;
61642;SDS011;47551;52.506;4.678;2024-01-06T01:52:15;8.00;;;5.30;;
61642;SDS011;47551;52.506;4.678;2024-01-06T01:52:36;7.67;;;5.30;;
61642;SDS011;47551;52.506;4.678;2024-01-06T01:52:56;8.80;;;5.72;;
61642;SDS011;47551;52.506;4.678;2024-01-06T01:53:17;9.07;;;5.38;;
61642;SDS011;47551;52.506;4.678;2024-01-06T01:53:37;9.70;;;5.40;;
61642;SDS011;47551;52.506;4.678;2024-01-06T01:53:58;10.73;;;5.93;;
61642;SDS011;47551;52.506;4.678;2024-01-06T01:54:19;10.50;;;5.90;;
61642;SDS011;47551;52.506;4.678;2024-01-06T01:54:42;10.95;;;5.90;;
61642;SDS011;47551;52.506;4.678;2024-01-06T01:55:05;9.32;;;5.60;;
61642;SDS011;47551;52.506;4.678;2024-01-06T01:55:25;10.55;;;5.85;;
61642;SDS011;47551;52.506;4.678;2024-01-06T01:55:46;10.97;;;5.93;;
61642;SDS011;47551;52.506;4.678;2024-01-06T01:56:06;9.60;;;5.60;;
61642;SDS011;47551;52.506;4.678;2024-01-06T01:56:27;9.40;;;5.50;;
61642;SDS011;47551;52.506;4.678;2024-01-06T01:56:47;8.68;;;5.47;;
61642;SDS011;47551;52.506;4.678;2024-01-06T01:57:08;9.97;;;5.70;;
61642;SDS011;47551;52.506;4.678;2024-01-06T01:57:29;9.48;;;5.57;;
61642;SDS011;47551;52.506;4.678;2024-01-06T01:57:58;8.87;;;5.40;;
61642;SDS011;47551;52.506;4.678;2024-01-06T01:58:19;9.85;;;5.38;;
61642;SDS011;47551;52.506;4.678;2024-01-06T01:58:39;9.23;;;5.20;;
61642;SDS011;47551;52.506;4.678;2024-01-06T01:59:09;8.13;;;4.85;;
61642;SDS011;47551;52.506;4.678;2024-01-06T01:59:30;9.98;;;5.20;;
61642;SDS011;47551;52.506;4.678;2024-01-06T01:59:52;7.70;;;4.70;;
61642;SDS011;47551;52.506;4.678;2024-01-06T02:00:12;7.25;;;4.78;;
61642;SDS011;47551;52.506;4.678;2024-01-06T02:00:33;6.88;;;4.45;;
61642;SDS011;47551;52.506;4.678;2024-01-06T02:00:53;8.53;;;4.80;;
61642;SDS011;47551;52.506;4.678;2024-01-06T02:01:13;9.00;;;5.07;;
61642;SDS011;47551;52.506;4.678;2024-01-06T02:01:33;9.25;;;5.05;;
61642;SDS011;47551;52.506;4.678;2024-01-06T02:01:54;8.50;;;4.83;;
61642;SDS011;47551;52.506;4.678;2024-01-06T02:02:15;8.93;;;5.25;;
61642;SDS011;47551;52.506;4.678;2024-01-06T02:02:36;9.00;;;5.47;;
61642;SDS011;47551;52.506;4.678;2024-01-06T02:02:58;8.53;;;5.53;;
61642;SDS011;47551;52.506;4.678;2024-01-06T02:03:19;8.93;;;5.30;;
61642;SDS011;47551;52.506;4.678;2024-01-06T02:03:40;9.25;;;5.60;;
61642;SDS011;47551;52.506;4.678;2024-01-06T02:04:03;8.90;;;5.43;;